KLKV

Lake County Airport

Lakeview, Oregon, USA
METAR KLKV 201953Z AUTO 00000KT 3SM HZ CLR 25/06 A3010 RMK AO2 SLP658 T02500056
Observed Flight Rules
Aug-20 @ 19:53 UTC (36 minutes ago) Marginal Visual Flight Rules
Visibility Clouds Conditions
3 miles
  • Clear skies
  • Haze
Temperatures Readings
Current 25°C / 77°F
Dewpoint 6°C / 43°F
Humidity 30%
Altimeter 30.1" Hg
Pressure 965.8 hPa
Elevation 1441
METAR KLKV 201953Z AUTO 00000KT 3SM HZ CLR 25/06 A3010 RMK AO2 SLP658 T02500056
Observed Flight Rules
Aug-20 @ 19:53 UTC
(36 minutes ago)
MVFR
Clouds
  • Clear skies
Conditions
  • Haze
Temperature Dewpoint
25°C / 77°F 6°C / 43°F
Humidity Altimeter Pressure
30% 30.1" Hg 965.8 hPa